createdAt,value
2022-10-03T00:02:33.659Z,8.80
2022-10-03T00:05:22.047Z,8.70
2022-10-03T00:08:06.324Z,8.70
2022-10-03T00:10:54.950Z,8.70
2022-10-03T00:13:36.082Z,8.80
2022-10-03T00:16:29.500Z,8.80
2022-10-03T00:19:07.262Z,8.80
2022-10-03T00:21:50.945Z,8.90
2022-10-03T00:24:41.912Z,8.80
2022-10-03T00:27:26.161Z,8.80
2022-10-03T00:30:19.330Z,8.80
2022-10-03T00:33:07.836Z,8.80
2022-10-03T00:35:42.512Z,8.80
2022-10-03T00:38:24.357Z,8.70
2022-10-03T00:40:51.049Z,8.70
2022-10-03T00:43:23.994Z,8.80
2022-10-03T00:46:17.192Z,8.70
2022-10-03T00:49:12.807Z,8.80
2022-10-03T00:51:45.243Z,8.70
2022-10-03T00:54:27.015Z,8.80
2022-10-03T00:57:15.698Z,8.80
2022-10-03T01:00:16.200Z,8.80
2022-10-03T01:02:55.261Z,8.80
2022-10-03T01:05:56.113Z,8.80
2022-10-03T01:08:44.779Z,8.80
2022-10-03T01:11:14.560Z,8.90
2022-10-03T01:13:49.918Z,9.00
2022-10-03T01:16:27.550Z,9.00
2022-10-03T01:18:59.690Z,8.90
2022-10-03T01:21:29.575Z,8.90
2022-10-03T01:24:17.771Z,8.90
2022-10-03T01:27:04.777Z,8.90
2022-10-03T01:30:02.230Z,8.90
2022-10-03T01:32:38.226Z,8.90
2022-10-03T01:35:23.072Z,8.90
2022-10-03T01:37:58.427Z,8.90
2022-10-03T01:40:31.929Z,8.90
2022-10-03T01:42:58.957Z,9.00
2022-10-03T01:45:29.036Z,9.00
2022-10-03T01:48:04.563Z,8.90
2022-10-03T01:50:59.779Z,8.90
2022-10-03T01:53:44.442Z,8.90
2022-10-03T01:56:29.293Z,9.00
2022-10-03T01:59:14.158Z,9.00
2022-10-03T02:02:07.910Z,8.90
2022-10-03T02:04:49.705Z,8.90
2022-10-03T02:07:25.954Z,8.90
2022-10-03T02:10:09.725Z,8.80
2022-10-03T02:13:05.657Z,8.90
2022-10-03T02:15:56.226Z,8.90
2022-10-03T02:18:23.498Z,9.00
2022-10-03T02:21:19.035Z,9.00
2022-10-03T02:23:46.663Z,8.80
2022-10-03T02:26:28.464Z,8.90
2022-10-03T02:29:22.583Z,9.00
2022-10-03T02:32:05.698Z,8.90
2022-10-03T02:34:40.596Z,8.90
2022-10-03T02:37:36.852Z,8.90
2022-10-03T02:40:37.166Z,8.80
2022-10-03T02:43:33.049Z,8.80
2022-10-03T02:46:21.411Z,9.00
2022-10-03T02:49:07.093Z,9.00
2022-10-03T02:51:57.422Z,9.00
2022-10-03T02:54:36.296Z,8.90
2022-10-03T02:57:32.333Z,8.90
2022-10-03T03:00:15.036Z,8.90
2022-10-03T03:02:50.904Z,8.90
2022-10-03T03:05:32.848Z,8.90
2022-10-03T03:08:08.522Z,8.90
2022-10-03T03:11:08.960Z,9.00
2022-10-03T03:14:00.348Z,9.00
2022-10-03T03:16:55.142Z,9.00
2022-10-03T03:19:43.769Z,9.00
2022-10-03T03:22:41.515Z,8.90
2022-10-03T03:25:19.337Z,8.90
2022-10-03T03:28:20.121Z,8.90
2022-10-03T03:31:07.648Z,8.90
2022-10-03T03:34:03.061Z,8.90
2022-10-03T03:36:55.806Z,8.90
2022-10-03T03:39:34.323Z,9.00
2022-10-03T03:42:10.173Z,8.90
2022-10-03T03:44:55.910Z,8.90
2022-10-03T03:47:47.686Z,9.00
2022-10-03T03:50:36.555Z,9.00
2022-10-03T03:53:24.936Z,9.00
2022-10-03T03:56:17.605Z,9.00
2022-10-03T03:59:09.089Z,9.00
2022-10-03T04:01:59.275Z,8.90
2022-10-03T04:04:52.019Z,8.90
2022-10-03T04:07:51.178Z,8.80
2022-10-03T04:10:42.606Z,8.90
2022-10-03T04:13:24.607Z,8.90
2022-10-03T04:15:51.290Z,9.00
2022-10-03T04:18:54.883Z,8.90
2022-10-03T04:21:41.273Z,8.90
2022-10-03T04:24:21.934Z,8.90
2022-10-03T04:27:05.076Z,8.80
2022-10-03T04:29:48.111Z,8.80
2022-10-03T04:32:34.835Z,8.80
2022-10-03T04:35:33.195Z,8.80
2022-10-03T04:38:20.631Z,8.80
2022-10-03T04:41:01.052Z,8.80
2022-10-03T04:43:43.880Z,8.80
2022-10-03T04:46:22.720Z,8.90
2022-10-03T04:49:02.002Z,8.80
2022-10-03T04:51:37.689Z,8.80
2022-10-03T04:54:17.068Z,8.80
2022-10-03T04:57:05.180Z,8.80
2022-10-03T05:00:04.067Z,8.80
2022-10-03T05:02:37.029Z,8.90
2022-10-03T05:05:21.265Z,8.90
2022-10-03T05:07:47.983Z,9.00
2022-10-03T05:10:20.701Z,9.00
2022-10-03T05:12:59.483Z,8.90
2022-10-03T05:15:45.670Z,8.90
2022-10-03T05:18:43.964Z,8.90
2022-10-03T05:21:27.845Z,9.00
2022-10-03T05:24:32.053Z,9.10
2022-10-03T05:27:11.110Z,9.20
2022-10-03T05:29:44.106Z,9.20
2022-10-03T05:32:32.075Z,9.20
2022-10-03T05:35:19.901Z,9.20
2022-10-03T05:37:49.696Z,9.20
2022-10-03T05:40:36.360Z,9.20
2022-10-03T05:43:22.899Z,9.20
2022-10-03T05:46:02.284Z,9.20
2022-10-03T05:48:40.377Z,9.10
2022-10-03T05:51:39.385Z,9.10
2022-10-03T05:54:45.753Z,9.10
2022-10-03T05:57:24.499Z,9.20
2022-10-03T06:00:02.313Z,9.30
2022-10-03T06:03:10.440Z,9.30
2022-10-03T06:06:14.709Z,9.30
2022-10-03T06:08:59.253Z,9.30
2022-10-03T06:11:43.960Z,9.40
2022-10-03T06:14:35.712Z,9.50
2022-10-03T06:17:11.531Z,9.50
2022-10-03T06:19:58.039Z,9.60
2022-10-03T06:22:52.865Z,9.60
2022-10-03T06:25:41.347Z,9.60
2022-10-03T06:28:23.244Z,9.60
2022-10-03T06:31:05.576Z,9.60
2022-10-03T06:33:53.340Z,9.50
2022-10-03T06:36:55.342Z,9.60
2022-10-03T06:39:24.923Z,9.60
2022-10-03T06:42:01.313Z,9.60
2022-10-03T06:44:46.949Z,9.60
2022-10-03T06:47:39.386Z,9.70
2022-10-03T06:50:19.135Z,9.70
2022-10-03T06:53:19.700Z,9.70
2022-10-03T06:56:12.886Z,9.60
2022-10-03T06:59:01.759Z,9.50
2022-10-03T07:01:59.625Z,9.60
2022-10-03T07:05:20.584Z,9.60
2022-10-03T07:08:08.750Z,9.60
2022-10-03T07:10:50.377Z,9.60
2022-10-03T07:13:44.010Z,9.60
2022-10-03T07:16:41.463Z,9.70
2022-10-03T07:19:27.047Z,9.70
2022-10-03T07:22:02.803Z,9.70
2022-10-03T07:25:07.153Z,9.80
2022-10-03T07:27:50.823Z,10.10
2022-10-03T07:30:20.211Z,10.40
2022-10-03T07:33:11.643Z,10.50
2022-10-03T07:36:35.217Z,10.70
2022-10-03T07:39:17.197Z,11.10
2022-10-03T07:42:08.730Z,11.50
2022-10-03T07:44:40.190Z,11.80
2022-10-03T07:47:45.637Z,11.90
2022-10-03T07:50:40.462Z,11.70
2022-10-03T07:53:19.345Z,11.70
2022-10-03T07:55:59.195Z,11.70
2022-10-03T07:58:37.507Z,11.60
2022-10-03T08:01:13.401Z,11.60
2022-10-03T08:03:55.932Z,11.60
2022-10-03T08:06:32.391Z,11.70
2022-10-03T08:09:18.664Z,11.80
2022-10-03T08:11:51.201Z,11.90
2022-10-03T08:14:42.227Z,12.00
2022-10-03T08:17:35.823Z,11.90
2022-10-03T08:20:18.591Z,11.90
2022-10-03T08:23:26.900Z,11.90
2022-10-03T08:26:21.042Z,12.00
2022-10-03T08:29:22.086Z,12.10
2022-10-03T08:32:07.040Z,12.10
2022-10-03T08:35:06.052Z,12.10
2022-10-03T08:37:50.734Z,12.10
2022-10-03T08:40:26.293Z,12.20
2022-10-03T08:43:02.103Z,12.10
2022-10-03T08:45:44.341Z,12.00
2022-10-03T08:48:20.132Z,12.10
2022-10-03T08:51:23.027Z,12.10
2022-10-03T08:54:02.657Z,12.10
2022-10-03T08:57:06.303Z,12.10
2022-10-03T08:59:51.895Z,12.10
2022-10-03T09:03:02.079Z,12.20
2022-10-03T09:05:54.649Z,12.10
2022-10-03T09:08:21.403Z,12.00
2022-10-03T09:11:03.938Z,12.00
2022-10-03T09:14:12.207Z,12.00
2022-10-03T09:16:47.054Z,12.00
2022-10-03T09:19:41.213Z,12.50
2022-10-03T09:22:31.750Z,13.10
2022-10-03T09:25:23.222Z,13.40
2022-10-03T09:28:19.201Z,13.50
2022-10-03T09:31:08.307Z,13.60
2022-10-03T09:33:55.323Z,13.70
2022-10-03T09:36:46.775Z,13.90
2022-10-03T09:39:47.780Z,14.10
2022-10-03T09:42:38.773Z,14.20
2022-10-03T09:45:33.521Z,14.30
2022-10-03T09:48:22.232Z,14.30
2022-10-03T09:51:11.383Z,14.30
2022-10-03T09:54:02.663Z,14.30
2022-10-03T09:56:56.199Z,14.40
2022-10-03T09:59:33.624Z,14.50
2022-10-03T10:02:27.273Z,14.70
2022-10-03T10:05:03.052Z,14.90
2022-10-03T10:07:48.300Z,15.10
2022-10-03T10:10:37.010Z,14.90
2022-10-03T10:13:15.646Z,14.90
2022-10-03T10:16:10.515Z,14.70
2022-10-03T10:18:40.423Z,14.60
2022-10-03T10:21:22.263Z,14.50
2022-10-03T10:24:27.067Z,14.40
2022-10-03T10:27:03.029Z,14.10
2022-10-03T10:29:51.245Z,14.00
2022-10-03T10:32:51.291Z,13.90
2022-10-03T10:35:39.541Z,13.80
2022-10-03T10:38:09.670Z,13.80
2022-10-03T10:40:59.863Z,13.70
2022-10-03T10:43:29.596Z,13.70
2022-10-03T10:46:15.124Z,13.70
2022-10-03T10:49:04.141Z,13.60
2022-10-03T10:52:23.999Z,13.60
2022-10-03T10:55:05.974Z,13.60
2022-10-03T10:57:54.922Z,13.70
2022-10-03T11:01:01.925Z,13.80
2022-10-03T11:03:47.258Z,13.90
2022-10-03T11:07:04.670Z,13.80
2022-10-03T11:10:14.311Z,13.80
2022-10-03T11:12:44.209Z,14.00
2022-10-03T11:15:31.060Z,14.10
2022-10-03T11:17:57.803Z,14.50
2022-10-03T11:21:01.965Z,14.80
2022-10-03T11:23:36.070Z,14.60
2022-10-03T11:26:40.688Z,14.70
2022-10-03T11:29:23.260Z,14.50
2022-10-03T11:32:09.532Z,14.30
2022-10-03T11:34:48.325Z,14.20
2022-10-03T11:37:20.924Z,14.30
2022-10-03T11:39:58.723Z,14.40
2022-10-03T11:42:44.054Z,14.40
2022-10-03T11:45:35.622Z,14.30
2022-10-03T11:48:11.043Z,14.30
2022-10-03T11:51:02.488Z,14.30
2022-10-03T11:53:41.109Z,14.40
2022-10-03T11:56:33.844Z,14.50
2022-10-03T11:59:39.277Z,14.40
2022-10-03T12:02:21.467Z,14.20
2022-10-03T12:04:56.996Z,14.30
2022-10-03T12:07:58.656Z,14.30
2022-10-03T12:10:40.153Z,14.30
2022-10-03T12:13:23.190Z,14.30
2022-10-03T12:15:55.257Z,14.20
2022-10-03T12:18:31.896Z,14.10
2022-10-03T12:21:10.942Z,14.10
2022-10-03T12:23:56.374Z,14.10
2022-10-03T12:26:37.722Z,14.10
2022-10-03T12:29:07.656Z,14.10
2022-10-03T12:31:48.599Z,14.30
2022-10-03T12:34:43.974Z,14.20
2022-10-03T12:37:23.409Z,14.10
2022-10-03T12:40:01.494Z,13.90
2022-10-03T12:42:37.619Z,13.70
2022-10-03T12:45:29.165Z,13.50
2022-10-03T12:48:16.454Z,13.30
2022-10-03T12:50:43.314Z,13.30
2022-10-03T12:53:16.239Z,13.10
2022-10-03T12:56:01.577Z,13.00
2022-10-03T12:58:44.054Z,13.00
2022-10-03T13:01:23.119Z,13.00
2022-10-03T13:04:25.173Z,13.00
2022-10-03T13:07:26.603Z,13.10
2022-10-03T13:10:25.723Z,13.20
2022-10-03T13:13:06.058Z,13.20
2022-10-03T13:15:47.942Z,13.30
2022-10-03T13:18:40.464Z,13.20
2022-10-03T13:21:44.461Z,13.40
2022-10-03T13:24:25.980Z,13.30
2022-10-03T13:27:26.009Z,13.00
2022-10-03T13:30:21.783Z,12.90
2022-10-03T13:32:54.640Z,12.70
2022-10-03T13:35:53.552Z,12.50
2022-10-03T13:38:37.104Z,12.50
2022-10-03T13:41:28.851Z,12.40
2022-10-03T13:44:10.058Z,12.40
2022-10-03T13:46:48.964Z,12.40
2022-10-03T13:49:38.566Z,12.30
2022-10-03T13:52:23.447Z,12.40
2022-10-03T13:55:02.398Z,12.30
2022-10-03T13:57:52.712Z,12.20
2022-10-03T14:00:22.071Z,12.20
2022-10-03T14:03:16.674Z,12.20
2022-10-03T14:05:55.358Z,12.20
2022-10-03T14:09:03.916Z,12.30
2022-10-03T14:11:38.500Z,12.30
2022-10-03T14:14:11.468Z,12.20
2022-10-03T14:17:02.646Z,12.30
2022-10-03T14:19:47.676Z,12.30
2022-10-03T14:22:56.969Z,12.40
2022-10-03T14:25:28.842Z,12.40
2022-10-03T14:28:07.856Z,12.50
2022-10-03T14:31:05.542Z,12.50
2022-10-03T14:33:41.564Z,12.60
2022-10-03T14:36:35.450Z,12.60
2022-10-03T14:39:32.387Z,12.70
2022-10-03T14:42:20.542Z,12.70
2022-10-03T14:44:54.053Z,12.80
2022-10-03T14:47:21.959Z,12.80
2022-10-03T14:49:59.169Z,12.90
2022-10-03T14:52:48.622Z,12.90
2022-10-03T14:55:29.952Z,12.90
2022-10-03T14:58:10.843Z,12.90
2022-10-03T15:00:46.051Z,12.80
2022-10-03T15:03:20.368Z,12.90
2022-10-03T15:06:11.936Z,12.90
2022-10-03T15:08:45.983Z,12.90
2022-10-03T15:11:16.518Z,12.80
2022-10-03T15:13:51.006Z,12.90
2022-10-03T15:16:21.468Z,12.90
2022-10-03T15:18:58.480Z,12.90
2022-10-03T15:21:27.435Z,12.80
2022-10-03T15:24:02.700Z,12.80
2022-10-03T15:26:35.071Z,12.80
2022-10-03T15:29:06.132Z,12.80
2022-10-03T15:31:46.049Z,12.80
2022-10-03T15:34:21.911Z,12.70
2022-10-03T15:36:52.219Z,12.80
2022-10-03T15:39:28.688Z,12.80
2022-10-03T15:42:04.599Z,12.80
2022-10-03T15:44:39.503Z,12.70
2022-10-03T15:47:20.424Z,12.80
2022-10-03T15:50:01.641Z,12.80
2022-10-03T15:52:46.778Z,12.80
2022-10-03T15:55:29.513Z,12.80
2022-10-03T15:58:05.670Z,12.80
2022-10-03T16:00:36.189Z,12.80
2022-10-03T16:03:22.303Z,12.80
2022-10-03T16:06:12.286Z,12.80
2022-10-03T16:08:50.978Z,12.80
2022-10-03T16:11:29.340Z,12.80
2022-10-03T16:14:20.730Z,12.80
2022-10-03T16:16:56.488Z,12.80
2022-10-03T16:19:40.090Z,12.80
2022-10-03T16:22:20.813Z,12.80
2022-10-03T16:25:16.279Z,12.60
2022-10-03T16:28:05.800Z,12.40
2022-10-03T16:30:40.489Z,12.20
2022-10-03T16:33:10.138Z,12.00
2022-10-03T16:35:54.494Z,11.80
2022-10-03T16:38:23.153Z,11.70
2022-10-03T16:40:58.885Z,11.70
2022-10-03T16:43:28.232Z,11.70
2022-10-03T16:45:56.980Z,11.60
2022-10-03T16:48:53.468Z,11.60
2022-10-03T16:51:23.846Z,11.50
2022-10-03T16:53:53.583Z,11.40
2022-10-03T16:56:30.183Z,11.40
2022-10-03T16:59:03.352Z,11.40
2022-10-03T17:01:43.075Z,11.40
2022-10-03T17:04:21.587Z,11.40
2022-10-03T17:06:50.716Z,11.40
2022-10-03T17:09:27.916Z,11.40
2022-10-03T17:11:58.353Z,11.40
2022-10-03T17:14:28.752Z,11.40
2022-10-03T17:17:03.030Z,11.40
2022-10-03T17:19:45.999Z,11.40
2022-10-03T17:22:28.198Z,11.50
2022-10-03T17:25:18.571Z,11.50
2022-10-03T17:27:49.686Z,11.50
2022-10-03T17:30:45.075Z,11.50
2022-10-03T17:33:43.022Z,11.60
2022-10-03T17:36:43.252Z,11.60
2022-10-03T17:39:39.957Z,11.60
2022-10-03T17:42:38.463Z,11.70
2022-10-03T17:45:06.749Z,11.70
2022-10-03T17:47:45.246Z,11.70
2022-10-03T17:50:15.556Z,11.60
2022-10-03T17:52:46.095Z,11.60
2022-10-03T17:55:27.319Z,11.60
2022-10-03T17:57:58.620Z,11.60
2022-10-03T18:00:31.261Z,11.60
2022-10-03T18:03:13.631Z,11.60
2022-10-03T18:05:53.483Z,11.60
2022-10-03T18:08:25.675Z,11.60
2022-10-03T18:10:56.001Z,11.60
2022-10-03T18:13:33.020Z,11.30
2022-10-03T18:16:23.043Z,11.00
2022-10-03T18:19:21.740Z,10.60
2022-10-03T18:22:03.304Z,10.30
2022-10-03T18:24:30.086Z,10.20
2022-10-03T18:27:17.147Z,10.10
2022-10-03T18:30:15.320Z,10.10
2022-10-03T18:32:45.597Z,10.00
2022-10-03T18:35:23.476Z,9.80
2022-10-03T18:37:55.340Z,9.80
2022-10-03T18:40:46.144Z,9.70
2022-10-03T18:43:25.895Z,9.60
2022-10-03T18:46:03.694Z,9.60
2022-10-03T18:49:15.730Z,9.60
2022-10-03T18:51:44.110Z,9.40
2022-10-03T18:54:22.572Z,9.30
2022-10-03T18:57:07.855Z,9.30
2022-10-03T18:59:56.215Z,9.30
2022-10-03T19:02:28.730Z,9.20
2022-10-03T19:05:33.592Z,9.20
2022-10-03T19:08:08.342Z,9.20
2022-10-03T19:10:52.367Z,9.10
2022-10-03T19:13:42.321Z,9.10
2022-10-03T19:16:24.155Z,9.10
2022-10-03T19:19:14.994Z,9.10
2022-10-03T19:21:43.385Z,9.10
2022-10-03T19:24:17.490Z,9.20
2022-10-03T19:26:56.485Z,9.10
2022-10-03T19:29:28.374Z,9.10
2022-10-03T19:32:03.936Z,9.10
2022-10-03T19:34:39.180Z,9.10
2022-10-03T19:37:26.136Z,9.00
2022-10-03T19:39:53.141Z,8.90
2022-10-03T19:42:56.650Z,8.90
2022-10-03T19:45:23.728Z,8.80
2022-10-03T19:47:56.464Z,8.80
2022-10-03T19:50:33.770Z,8.70
2022-10-03T19:53:01.261Z,8.70
2022-10-03T19:55:34.166Z,8.70
2022-10-03T19:58:05.000Z,8.60
2022-10-03T20:00:37.312Z,8.50
2022-10-03T20:03:10.871Z,8.60
2022-10-03T20:06:08.480Z,8.60
2022-10-03T20:08:35.337Z,8.60
2022-10-03T20:11:05.235Z,8.40
2022-10-03T20:13:32.215Z,8.40
2022-10-03T20:15:59.531Z,8.40
2022-10-03T20:18:34.495Z,8.40
2022-10-03T20:21:04.055Z,8.30
2022-10-03T20:23:33.473Z,8.20
2022-10-03T20:26:10.296Z,8.30
2022-10-03T20:28:59.718Z,8.30
2022-10-03T20:31:29.612Z,8.20
2022-10-03T20:33:59.630Z,8.10
2022-10-03T20:36:31.103Z,8.10
2022-10-03T20:39:02.851Z,8.00
2022-10-03T20:41:42.003Z,8.00
2022-10-03T20:44:17.984Z,8.10
2022-10-03T20:46:50.381Z,8.10
2022-10-03T20:49:32.014Z,7.90
2022-10-03T20:52:01.589Z,8.00
2022-10-03T20:54:47.532Z,7.90
2022-10-03T20:57:49.895Z,7.90
2022-10-03T21:00:20.828Z,7.90
2022-10-03T21:03:14.757Z,7.90
2022-10-03T21:05:49.321Z,7.80
2022-10-03T21:08:18.816Z,7.90
2022-10-03T21:10:54.794Z,7.80
2022-10-03T21:13:21.620Z,7.80
2022-10-03T21:15:53.492Z,7.80
2022-10-03T21:18:32.402Z,7.80
2022-10-03T21:21:06.355Z,7.70
2022-10-03T21:23:57.307Z,7.70
2022-10-03T21:26:27.621Z,7.80
2022-10-03T21:29:16.888Z,7.80
2022-10-03T21:32:29.552Z,7.70
2022-10-03T21:35:21.070Z,7.70
2022-10-03T21:38:06.713Z,7.70
2022-10-03T21:41:02.459Z,7.70
2022-10-03T21:43:38.197Z,7.80
2022-10-03T21:46:14.440Z,7.80
2022-10-03T21:48:53.499Z,7.70
2022-10-03T21:51:20.211Z,7.70
2022-10-03T21:53:55.621Z,7.70
2022-10-03T21:56:46.487Z,7.70
2022-10-03T21:59:25.398Z,7.70
2022-10-03T22:02:14.160Z,7.70
2022-10-03T22:04:47.202Z,7.70
2022-10-03T22:07:26.702Z,7.70
2022-10-03T22:09:57.510Z,7.70
2022-10-03T22:12:28.498Z,7.70
2022-10-03T22:15:12.102Z,7.80
2022-10-03T22:17:49.515Z,7.80
2022-10-03T22:20:21.885Z,7.80
2022-10-03T22:23:07.789Z,7.80
2022-10-03T22:25:58.360Z,7.80
2022-10-03T22:28:37.187Z,7.70
2022-10-03T22:31:06.708Z,7.80
2022-10-03T22:34:03.721Z,7.80
2022-10-03T22:36:34.272Z,7.80
2022-10-03T22:39:01.041Z,7.80
2022-10-03T22:41:30.429Z,7.80
2022-10-03T22:43:58.940Z,7.80
2022-10-03T22:46:30.712Z,7.90
2022-10-03T22:49:14.974Z,7.80
2022-10-03T22:51:43.737Z,7.80
2022-10-03T22:54:15.571Z,7.80
2022-10-03T22:56:59.557Z,7.70
2022-10-03T22:59:31.210Z,7.70
2022-10-03T23:02:01.888Z,7.70
2022-10-03T23:04:28.608Z,7.70
2022-10-03T23:07:08.823Z,7.70
2022-10-03T23:09:51.343Z,7.70
2022-10-03T23:12:20.177Z,7.70
2022-10-03T23:14:50.285Z,7.70
2022-10-03T23:17:25.682Z,7.70
2022-10-03T23:20:20.158Z,7.80
2022-10-03T23:22:52.346Z,7.80
2022-10-03T23:25:25.909Z,7.80
2022-10-03T23:28:21.383Z,7.80
2022-10-03T23:30:54.251Z,7.70
2022-10-03T23:33:33.262Z,7.70
2022-10-03T23:36:06.505Z,7.80
2022-10-03T23:38:36.249Z,7.70
2022-10-03T23:41:14.932Z,7.70
2022-10-03T23:43:44.662Z,7.60
2022-10-03T23:46:14.588Z,7.50
2022-10-03T23:48:55.200Z,7.50
2022-10-03T23:51:36.520Z,7.50
2022-10-03T23:54:06.242Z,7.50
2022-10-03T23:56:42.995Z,7.50
2022-10-03T23:59:15.882Z,7.60
